createdAt,value
2023-03-02T00:00:20.088Z,957.75
2023-03-02T00:01:20.080Z,957.77
2023-03-02T00:02:20.130Z,957.75
2023-03-02T00:03:20.076Z,957.72
2023-03-02T00:04:20.026Z,957.71
2023-03-02T00:05:20.009Z,957.70
2023-03-02T00:06:20.000Z,957.68
2023-03-02T00:07:20.000Z,957.69
2023-03-02T00:08:19.976Z,957.71
2023-03-02T00:09:19.997Z,957.72
2023-03-02T00:10:19.961Z,957.74
2023-03-02T00:11:19.958Z,957.77
2023-03-02T00:12:19.939Z,957.78
2023-03-02T00:13:22.961Z,957.74
2023-03-02T00:14:19.971Z,957.70
2023-03-02T00:15:19.940Z,957.70
2023-03-02T00:16:20.062Z,957.75
2023-03-02T00:17:20.903Z,957.74
2023-03-02T00:18:19.921Z,957.74
2023-03-02T00:19:19.949Z,957.76
2023-03-02T00:20:19.898Z,957.71
2023-03-02T00:21:19.858Z,957.69
2023-03-02T00:22:20.023Z,957.66
2023-03-02T00:23:19.861Z,957.67
2023-03-02T00:24:19.821Z,957.71
2023-03-02T00:25:19.836Z,957.68
2023-03-02T00:26:19.811Z,957.71
2023-03-02T00:27:19.817Z,957.73
2023-03-02T00:28:22.792Z,957.78
2023-03-02T00:29:19.786Z,957.72
2023-03-02T00:30:20.992Z,957.64
2023-03-02T00:31:19.843Z,957.64
2023-03-02T00:32:19.770Z,957.65
2023-03-02T00:33:19.745Z,957.72
2023-03-02T00:34:19.710Z,957.78
2023-03-02T00:35:19.743Z,957.73
2023-03-02T00:36:19.687Z,957.73
2023-03-02T00:37:20.672Z,957.73
2023-03-02T00:38:19.669Z,957.74
2023-03-02T00:39:19.649Z,957.71
2023-03-02T00:40:19.647Z,957.70
2023-03-02T00:41:19.671Z,957.77
2023-03-02T00:42:19.623Z,957.73
2023-03-02T00:43:22.636Z,957.72
2023-03-02T00:44:19.669Z,957.71
2023-03-02T00:45:19.608Z,957.71
2023-03-02T00:46:19.649Z,957.71
2023-03-02T00:47:19.591Z,957.67
2023-03-02T00:48:19.580Z,957.61
2023-03-02T00:49:19.575Z,957.58
2023-03-02T00:50:19.537Z,957.62
2023-03-02T00:51:19.535Z,957.65
2023-03-02T00:52:19.536Z,957.66
2023-03-02T00:53:19.502Z,957.63
2023-03-02T00:54:19.490Z,957.57
2023-03-02T00:55:19.532Z,957.56
2023-03-02T00:56:19.479Z,957.55
2023-03-02T00:57:19.479Z,957.49
2023-03-02T00:58:22.478Z,957.47
2023-03-02T00:59:19.472Z,957.48
2023-03-02T01:00:19.466Z,957.45
2023-03-02T01:01:19.452Z,957.45
2023-03-02T01:02:19.468Z,957.40
2023-03-02T01:03:19.472Z,957.40
2023-03-02T01:04:19.414Z,957.42
2023-03-02T01:05:19.421Z,957.41
2023-03-02T01:06:19.406Z,957.44
2023-03-02T01:07:19.424Z,957.43
2023-03-02T01:08:19.377Z,957.41
2023-03-02T01:09:19.327Z,957.44
2023-03-02T01:10:19.349Z,957.41
2023-03-02T01:11:19.347Z,957.45
2023-03-02T01:12:19.301Z,957.45
2023-03-02T01:13:22.319Z,957.43
2023-03-02T01:14:19.393Z,957.36
2023-03-02T01:15:19.279Z,957.34
2023-03-02T01:16:19.369Z,957.35
2023-03-02T01:17:19.281Z,957.31
2023-03-02T01:18:19.268Z,957.29
2023-03-02T01:19:19.268Z,957.30
2023-03-02T01:20:19.296Z,957.29
2023-03-02T01:21:19.448Z,957.28
2023-03-02T01:22:19.252Z,957.33
2023-03-02T01:23:19.223Z,957.31
2023-03-02T01:24:19.231Z,957.29
2023-03-02T01:25:19.173Z,957.25
2023-03-02T01:26:19.372Z,957.20
2023-03-02T01:27:19.184Z,957.18
2023-03-02T01:28:22.161Z,957.22
2023-03-02T01:29:19.147Z,957.18
2023-03-02T01:30:19.193Z,957.19
2023-03-02T01:31:19.165Z,957.22
2023-03-02T01:32:19.134Z,957.26
2023-03-02T01:33:19.115Z,957.23
2023-03-02T01:34:19.111Z,957.23
2023-03-02T01:35:19.135Z,957.19
2023-03-02T01:36:19.058Z,957.17
2023-03-02T01:37:19.188Z,957.19
2023-03-02T01:38:19.117Z,957.23
2023-03-02T01:39:19.017Z,957.24
2023-03-02T01:40:19.043Z,957.23
2023-03-02T01:41:18.996Z,957.16
2023-03-02T01:42:18.999Z,957.14
2023-03-02T01:43:22.016Z,957.20
2023-03-02T01:44:19.005Z,957.12
2023-03-02T01:45:18.984Z,957.11
2023-03-02T01:46:18.956Z,957.12
2023-03-02T01:47:18.977Z,957.12
2023-03-02T01:48:18.978Z,957.16
2023-03-02T01:49:18.916Z,957.22
2023-03-02T01:50:18.947Z,957.16
2023-03-02T01:51:18.922Z,957.16
2023-03-02T01:52:18.914Z,957.19
2023-03-02T01:53:18.875Z,957.11
2023-03-02T01:54:18.865Z,957.10
2023-03-02T01:55:18.858Z,957.06
2023-03-02T01:56:18.845Z,957.03
2023-03-02T01:57:18.838Z,957.04
2023-03-02T01:58:21.832Z,957.06
2023-03-02T01:59:18.903Z,957.03
2023-03-02T02:00:18.825Z,957.00
2023-03-02T02:01:18.848Z,956.99
2023-03-02T02:02:18.817Z,956.95
2023-03-02T02:03:18.793Z,956.96
2023-03-02T02:04:18.788Z,956.95
2023-03-02T02:05:18.773Z,956.93
2023-03-02T02:06:18.737Z,956.97
2023-03-02T02:07:18.748Z,956.97
2023-03-02T02:08:18.773Z,956.99
2023-03-02T02:09:18.713Z,956.96
2023-03-02T02:10:18.699Z,956.91
2023-03-02T02:11:18.720Z,956.85
2023-03-02T02:12:18.720Z,956.92
2023-03-02T02:13:21.697Z,956.87
2023-03-02T02:14:18.691Z,956.86
2023-03-02T02:15:18.685Z,956.86
2023-03-02T02:16:18.661Z,956.83
2023-03-02T02:17:18.650Z,956.88
2023-03-02T02:18:18.640Z,956.91
2023-03-02T02:19:18.618Z,956.90
2023-03-02T02:20:18.617Z,956.88
2023-03-02T02:21:18.582Z,956.88
2023-03-02T02:22:18.589Z,956.89
2023-03-02T02:23:18.558Z,956.92
2023-03-02T02:24:18.577Z,956.91
2023-03-02T02:25:18.570Z,956.94
2023-03-02T02:26:18.734Z,956.92
2023-03-02T02:27:18.520Z,956.89
2023-03-02T02:28:21.530Z,956.82
2023-03-02T02:29:18.517Z,956.76
2023-03-02T02:30:18.499Z,956.74
2023-03-02T02:31:18.507Z,956.76
2023-03-02T02:32:18.595Z,956.81
2023-03-02T02:33:18.462Z,956.80
2023-03-02T02:34:18.472Z,956.81
2023-03-02T02:35:18.488Z,956.78
2023-03-02T02:36:18.435Z,956.73
2023-03-02T02:37:18.438Z,956.75
2023-03-02T02:38:18.422Z,956.74
2023-03-02T02:39:18.412Z,956.74
2023-03-02T02:40:18.437Z,956.76
2023-03-02T02:41:18.508Z,956.76
2023-03-02T02:42:18.406Z,956.81
2023-03-02T02:43:21.350Z,956.74
2023-03-02T02:44:18.355Z,956.74
2023-03-02T02:45:18.352Z,956.69
2023-03-02T02:46:18.440Z,956.70
2023-03-02T02:47:18.345Z,956.68
2023-03-02T02:48:18.293Z,956.67
2023-03-02T02:49:18.281Z,956.73
2023-03-02T02:50:18.292Z,956.74
2023-03-02T02:51:19.263Z,956.72
2023-03-02T02:52:18.268Z,956.71
2023-03-02T02:53:18.233Z,956.75
2023-03-02T02:54:18.253Z,956.73
2023-03-02T02:55:18.285Z,956.71
2023-03-02T02:56:18.208Z,956.69
2023-03-02T02:57:18.226Z,956.66
2023-03-02T02:58:21.217Z,956.65
2023-03-02T02:59:18.221Z,956.70
2023-03-02T03:00:18.175Z,956.69
2023-03-02T03:01:18.263Z,956.71
2023-03-02T03:02:18.144Z,956.67
2023-03-02T03:03:18.156Z,956.67
2023-03-02T03:04:18.156Z,956.72
2023-03-02T03:05:18.130Z,956.71
2023-03-02T03:06:18.119Z,956.73
2023-03-02T03:07:18.118Z,956.76
2023-03-02T03:08:19.097Z,956.74
2023-03-02T03:09:18.111Z,956.73
2023-03-02T03:10:18.057Z,956.74
2023-03-02T03:11:18.049Z,956.73
2023-03-02T03:12:18.079Z,956.71
2023-03-02T03:13:21.060Z,956.69
2023-03-02T03:14:18.071Z,956.77
2023-03-02T03:15:18.037Z,956.75
2023-03-02T03:16:18.035Z,956.73
2023-03-02T03:17:18.136Z,956.76
2023-03-02T03:18:17.999Z,956.76
2023-03-02T03:19:17.993Z,956.75
2023-03-02T03:20:17.953Z,956.70
2023-03-02T03:21:17.976Z,956.72
2023-03-02T03:22:17.932Z,956.65
2023-03-02T03:23:17.966Z,956.63
2023-03-02T03:24:17.905Z,956.63
2023-03-02T03:25:17.922Z,956.63
2023-03-02T03:26:17.923Z,956.66
2023-03-02T03:27:17.869Z,956.71
2023-03-02T03:28:20.892Z,956.72
2023-03-02T03:29:17.872Z,956.73
2023-03-02T03:30:17.830Z,956.67
2023-03-02T03:31:17.881Z,956.74
2023-03-02T03:32:17.875Z,956.70
2023-03-02T03:33:17.840Z,956.74
2023-03-02T03:34:17.833Z,956.81
2023-03-02T03:35:17.900Z,956.79
2023-03-02T03:36:17.772Z,956.80
2023-03-02T03:37:17.770Z,956.82
2023-03-02T03:38:17.790Z,956.84
2023-03-02T03:39:17.744Z,956.82
2023-03-02T03:40:17.786Z,956.85
2023-03-02T03:41:17.754Z,956.84
2023-03-02T03:42:17.743Z,956.85
2023-03-02T03:43:20.737Z,956.79
2023-03-02T03:44:17.703Z,956.82
2023-03-02T03:45:17.702Z,956.85
2023-03-02T03:46:17.705Z,956.87
2023-03-02T03:47:17.690Z,956.81
2023-03-02T03:48:17.672Z,956.80
2023-03-02T03:49:17.641Z,956.79
2023-03-02T03:50:17.621Z,956.78
2023-03-02T03:51:17.693Z,956.78
2023-03-02T03:52:17.613Z,956.88
2023-03-02T03:53:17.628Z,956.85
2023-03-02T03:54:17.611Z,956.87
2023-03-02T03:55:17.583Z,956.87
2023-03-02T03:56:17.562Z,956.91
2023-03-02T03:57:17.632Z,956.89
2023-03-02T03:58:20.593Z,956.83
2023-03-02T03:59:17.566Z,956.80
2023-03-02T04:00:17.550Z,956.81
2023-03-02T04:01:17.546Z,956.77
2023-03-02T04:02:17.557Z,956.82
2023-03-02T04:03:17.569Z,956.75
2023-03-02T04:04:17.505Z,956.81
2023-03-02T04:05:17.468Z,956.84
2023-03-02T04:06:17.462Z,956.83
2023-03-02T04:07:17.443Z,956.83
2023-03-02T04:08:17.472Z,956.88
2023-03-02T04:09:17.430Z,956.83
2023-03-02T04:10:17.490Z,956.88
2023-03-02T04:11:17.432Z,956.82
2023-03-02T04:12:17.525Z,956.86
2023-03-02T04:13:20.410Z,956.84
2023-03-02T04:14:17.487Z,956.84
2023-03-02T04:15:17.399Z,956.89
2023-03-02T04:16:17.409Z,956.86
2023-03-02T04:17:17.522Z,956.89
2023-03-02T04:18:17.446Z,956.87
2023-03-02T04:19:17.522Z,956.87
2023-03-02T04:20:17.405Z,956.86
2023-03-02T04:21:17.405Z,956.90
2023-03-02T04:22:17.412Z,956.91
2023-03-02T04:23:17.506Z,956.92
2023-03-02T04:24:17.332Z,956.93
2023-03-02T04:25:17.317Z,956.95
2023-03-02T04:26:17.338Z,956.94
2023-03-02T04:27:17.336Z,956.93
2023-03-02T04:28:20.263Z,956.92
2023-03-02T04:29:17.301Z,956.93
2023-03-02T04:30:17.258Z,956.94
2023-03-02T04:31:17.281Z,956.94
2023-03-02T04:32:17.297Z,956.97
2023-03-02T04:33:17.283Z,957.00
2023-03-02T04:34:17.261Z,956.98
2023-03-02T04:35:17.302Z,956.97
2023-03-02T04:36:17.266Z,956.96
2023-03-02T04:37:17.177Z,956.96
2023-03-02T04:38:17.189Z,956.97
2023-03-02T04:39:17.140Z,956.98
2023-03-02T04:40:17.279Z,956.97
2023-03-02T04:41:17.136Z,957.02
2023-03-02T04:42:17.222Z,956.98
2023-03-02T04:43:20.077Z,957.06
2023-03-02T04:44:17.170Z,957.00
2023-03-02T04:45:17.078Z,957.02
2023-03-02T04:46:17.065Z,957.03
2023-03-02T04:47:17.051Z,957.05
2023-03-02T04:48:17.058Z,957.03
2023-03-02T04:49:17.022Z,957.01
2023-03-02T04:50:17.049Z,956.98
2023-03-02T04:51:17.022Z,956.99
2023-03-02T04:52:16.992Z,956.97
2023-03-02T04:53:16.990Z,956.94
2023-03-02T04:54:16.982Z,956.98
2023-03-02T04:55:16.963Z,956.94
2023-03-02T04:56:16.943Z,956.95
2023-03-02T04:57:16.973Z,956.94
2023-03-02T04:58:19.944Z,957.00
2023-03-02T04:59:16.963Z,957.02
2023-03-02T05:00:16.955Z,957.07
2023-03-02T05:01:16.980Z,957.07
2023-03-02T05:02:17.001Z,957.00
2023-03-02T05:03:16.874Z,957.00
2023-03-02T05:04:16.928Z,957.03
2023-03-02T05:05:16.886Z,957.02
2023-03-02T05:06:16.843Z,957.01
2023-03-02T05:07:16.831Z,957.00
2023-03-02T05:08:16.827Z,956.99
2023-03-02T05:09:16.819Z,957.01
2023-03-02T05:10:16.837Z,957.00
2023-03-02T05:11:16.813Z,956.99
2023-03-02T05:12:16.779Z,956.96
2023-03-02T05:13:19.796Z,956.97
2023-03-02T05:14:16.801Z,956.92
2023-03-02T05:15:16.742Z,956.94
2023-03-02T05:16:16.787Z,956.99
2023-03-02T05:17:16.755Z,957.02
2023-03-02T05:18:16.715Z,957.03
2023-03-02T05:19:16.759Z,957.03
2023-03-02T05:20:16.725Z,957.07
2023-03-02T05:21:16.688Z,957.08
2023-03-02T05:22:16.692Z,957.11
2023-03-02T05:23:16.661Z,957.14
2023-03-02T05:24:16.684Z,957.15
2023-03-02T05:25:16.636Z,957.17
2023-03-02T05:26:16.633Z,957.17
2023-03-02T05:27:16.616Z,957.18
2023-03-02T05:28:19.644Z,957.20
2023-03-02T05:29:16.653Z,957.22
2023-03-02T05:30:16.628Z,957.19
2023-03-02T05:31:16.628Z,957.24
2023-03-02T05:32:16.638Z,957.23
2023-03-02T05:33:16.594Z,957.30
2023-03-02T05:34:16.857Z,957.30
2023-03-02T05:35:16.496Z,957.29
2023-03-02T05:36:18.992Z,957.34
2023-03-02T05:37:16.548Z,957.33
2023-03-02T05:38:16.499Z,957.31
2023-03-02T05:39:16.484Z,957.34
2023-03-02T05:40:16.540Z,957.39
2023-03-02T05:41:16.473Z,957.37
2023-03-02T05:42:16.445Z,957.39
2023-03-02T05:43:19.434Z,957.39
2023-03-02T05:44:16.453Z,957.41
2023-03-02T05:45:16.457Z,957.36
2023-03-02T05:46:16.433Z,957.36
2023-03-02T05:47:16.527Z,957.46
2023-03-02T05:48:16.364Z,957.40
2023-03-02T05:49:16.365Z,957.41
2023-03-02T05:50:16.368Z,957.43
2023-03-02T05:51:16.358Z,957.44
2023-03-02T05:52:16.366Z,957.41
2023-03-02T05:53:16.337Z,957.43
2023-03-02T05:54:16.357Z,957.40
2023-03-02T05:55:16.280Z,957.42
2023-03-02T05:56:16.287Z,957.45
2023-03-02T05:57:16.294Z,957.43
2023-03-02T05:58:19.276Z,957.47
2023-03-02T05:59:16.306Z,957.50
2023-03-02T06:00:16.226Z,957.51
2023-03-02T06:01:16.255Z,957.52
2023-03-02T06:02:16.272Z,957.54
2023-03-02T06:03:16.264Z,957.53
2023-03-02T06:04:16.216Z,957.56
2023-03-02T06:05:16.181Z,957.56
2023-03-02T06:06:16.249Z,957.60
2023-03-02T06:07:16.198Z,957.60
2023-03-02T06:08:16.154Z,957.63
2023-03-02T06:09:16.144Z,957.56
2023-03-02T06:10:16.168Z,957.60
2023-03-02T06:11:16.126Z,957.59
2023-03-02T06:12:16.115Z,957.58
2023-03-02T06:13:19.113Z,957.59
2023-03-02T06:14:16.108Z,957.59
2023-03-02T06:15:16.123Z,957.62
2023-03-02T06:16:16.134Z,957.67
2023-03-02T06:17:16.117Z,957.65
2023-03-02T06:18:16.066Z,957.74
2023-03-02T06:19:16.099Z,957.73
2023-03-02T06:20:16.070Z,957.83
2023-03-02T06:21:16.049Z,957.80
2023-03-02T06:22:16.016Z,957.81
2023-03-02T06:23:16.015Z,957.87
2023-03-02T06:24:16.028Z,957.78
2023-03-02T06:25:16.009Z,957.79
2023-03-02T06:26:16.022Z,957.78
2023-03-02T06:27:15.980Z,957.78
2023-03-02T06:28:18.946Z,957.78
2023-03-02T06:29:15.989Z,957.80
2023-03-02T06:30:15.968Z,957.84
2023-03-02T06:31:15.993Z,957.85
2023-03-02T06:32:16.151Z,957.82
2023-03-02T06:33:15.918Z,957.84
2023-03-02T06:34:15.921Z,957.82
2023-03-02T06:35:15.983Z,957.87
2023-03-02T06:36:15.927Z,957.87
2023-03-02T06:37:15.888Z,957.84
2023-03-02T06:38:15.859Z,957.84
2023-03-02T06:39:15.854Z,957.89
2023-03-02T06:40:15.877Z,957.91
2023-03-02T06:41:15.909Z,957.92
2023-03-02T06:42:15.854Z,957.99
2023-03-02T06:43:18.822Z,957.96
2023-03-02T06:44:15.951Z,957.98
2023-03-02T06:45:15.801Z,958.00
2023-03-02T06:46:15.827Z,957.98
2023-03-02T06:47:15.793Z,957.97
2023-03-02T06:48:15.761Z,957.99
2023-03-02T06:49:15.754Z,958.03
2023-03-02T06:50:15.776Z,958.02
2023-03-02T06:51:15.738Z,958.06
2023-03-02T06:52:15.728Z,958.07
2023-03-02T06:53:15.732Z,958.05
2023-03-02T06:54:15.753Z,958.04
2023-03-02T06:55:15.741Z,958.12
2023-03-02T06:56:15.812Z,958.09
2023-03-02T06:57:15.754Z,958.10
2023-03-02T06:58:18.658Z,958.17
2023-03-02T06:59:15.768Z,958.13
2023-03-02T07:00:15.642Z,958.17
2023-03-02T07:01:15.655Z,958.17
2023-03-02T07:02:15.614Z,958.26
2023-03-02T07:03:15.673Z,958.24
2023-03-02T07:04:15.591Z,958.23
2023-03-02T07:05:15.597Z,958.29
2023-03-02T07:06:15.642Z,958.30
2023-03-02T07:07:15.603Z,958.36
2023-03-02T07:08:15.582Z,958.28
2023-03-02T07:09:15.581Z,958.34
2023-03-02T07:10:15.532Z,958.29
2023-03-02T07:11:15.553Z,958.31
2023-03-02T07:12:15.543Z,958.32
2023-03-02T07:13:18.532Z,958.36
2023-03-02T07:14:15.543Z,958.40
2023-03-02T07:15:15.488Z,958.39
2023-03-02T07:16:15.486Z,958.33
2023-03-02T07:17:15.483Z,958.36
2023-03-02T07:18:15.473Z,958.34
2023-03-02T07:19:15.460Z,958.35
2023-03-02T07:20:15.423Z,958.42
2023-03-02T07:21:15.431Z,958.39
2023-03-02T07:22:15.402Z,958.41
2023-03-02T07:23:15.392Z,958.38
2023-03-02T07:24:15.395Z,958.33
2023-03-02T07:25:15.375Z,958.37
2023-03-02T07:26:15.361Z,958.38
2023-03-02T07:27:15.380Z,958.41
2023-03-02T07:28:18.400Z,958.41
2023-03-02T07:29:15.352Z,958.42
2023-03-02T07:30:15.322Z,958.42
2023-03-02T07:31:15.458Z,958.45
2023-03-02T07:32:15.361Z,958.46
2023-03-02T07:33:15.326Z,958.46
2023-03-02T07:34:15.308Z,958.45
2023-03-02T07:35:15.261Z,958.49
2023-03-02T07:36:15.292Z,958.51
2023-03-02T07:37:15.274Z,958.54
2023-03-02T07:38:15.240Z,958.55
2023-03-02T07:39:15.245Z,958.53
2023-03-02T07:40:15.247Z,958.57
2023-03-02T07:41:15.203Z,958.51
2023-03-02T07:42:15.229Z,958.55
2023-03-02T07:43:18.217Z,958.61
2023-03-02T07:44:15.189Z,958.58
2023-03-02T07:45:15.166Z,958.61
2023-03-02T07:46:15.228Z,958.65
2023-03-02T07:47:15.172Z,958.60
2023-03-02T07:48:15.197Z,958.63
2023-03-02T07:49:15.134Z,958.65
2023-03-02T07:50:15.136Z,958.64
2023-03-02T07:51:15.108Z,958.68
2023-03-02T07:52:15.114Z,958.68
2023-03-02T07:53:15.104Z,958.69
2023-03-02T07:54:15.112Z,958.69
2023-03-02T07:55:15.095Z,958.68
2023-03-02T07:56:15.046Z,958.69
2023-03-02T07:57:15.070Z,958.74
2023-03-02T07:58:18.051Z,958.73
2023-03-02T07:59:15.096Z,958.68
2023-03-02T08:00:15.047Z,958.73
2023-03-02T08:01:15.023Z,958.80
2023-03-02T08:02:15.051Z,958.79
2023-03-02T08:03:15.110Z,958.76
2023-03-02T08:04:15.026Z,958.78
2023-03-02T08:05:14.956Z,958.79
2023-03-02T08:06:14.973Z,958.82
2023-03-02T08:07:14.967Z,958.85
2023-03-02T08:08:14.968Z,958.83
2023-03-02T08:09:16.835Z,958.81
2023-03-02T08:10:14.942Z,958.82
2023-03-02T08:11:14.934Z,958.82
2023-03-02T08:12:14.893Z,958.78
2023-03-02T08:13:17.941Z,958.79
2023-03-02T08:14:14.887Z,958.79
2023-03-02T08:15:15.030Z,958.79
2023-03-02T08:16:14.914Z,958.89
2023-03-02T08:17:14.912Z,958.86
2023-03-02T08:18:14.855Z,958.86
2023-03-02T08:19:14.839Z,958.83
2023-03-02T08:20:14.831Z,958.77
2023-03-02T08:21:14.827Z,958.83
2023-03-02T08:22:14.936Z,958.83
2023-03-02T08:23:14.785Z,958.84
2023-03-02T08:24:14.847Z,958.83
2023-03-02T08:25:14.774Z,958.85
2023-03-02T08:26:17.377Z,958.89
2023-03-02T08:27:14.794Z,958.87
2023-03-02T08:28:17.746Z,958.91
2023-03-02T08:29:14.753Z,958.91
2023-03-02T08:30:14.748Z,958.89
2023-03-02T08:31:14.762Z,958.89
2023-03-02T08:32:14.843Z,958.86
2023-03-02T08:33:14.714Z,958.88
2023-03-02T08:34:14.684Z,958.89
2023-03-02T08:35:14.687Z,958.90
2023-03-02T08:36:14.681Z,958.90
2023-03-02T08:37:14.656Z,958.90
2023-03-02T08:38:14.655Z,958.92
2023-03-02T08:39:14.619Z,958.92
2023-03-02T08:40:14.630Z,958.94
2023-03-02T08:41:14.622Z,958.93
2023-03-02T08:42:14.634Z,958.93
2023-03-02T08:43:17.611Z,958.94
2023-03-02T08:44:14.583Z,958.94
2023-03-02T08:45:14.567Z,958.90
2023-03-02T08:46:14.722Z,958.89
2023-03-02T08:47:14.557Z,958.93
2023-03-02T08:48:14.513Z,958.91
2023-03-02T08:49:14.545Z,958.90
2023-03-02T08:50:14.496Z,958.95
2023-03-02T08:51:14.522Z,958.90
2023-03-02T08:52:14.476Z,958.90
2023-03-02T08:53:14.466Z,958.90
2023-03-02T08:54:14.479Z,958.88
2023-03-02T08:55:14.509Z,958.91
2023-03-02T08:56:14.461Z,958.95
2023-03-02T08:57:14.453Z,958.92
2023-03-02T08:58:17.436Z,958.99
2023-03-02T08:59:14.420Z,958.99
2023-03-02T09:00:14.382Z,958.99
2023-03-02T09:01:14.416Z,958.98
2023-03-02T09:02:14.480Z,958.97
2023-03-02T09:03:14.384Z,958.97
2023-03-02T09:04:14.393Z,959.00
2023-03-02T09:05:14.417Z,958.98
2023-03-02T09:06:14.332Z,959.00
2023-03-02T09:07:16.538Z,959.04
2023-03-02T09:08:14.335Z,959.02
2023-03-02T09:09:14.356Z,959.04
2023-03-02T09:10:14.288Z,958.97
2023-03-02T09:11:14.323Z,958.96
2023-03-02T09:12:14.315Z,958.94
2023-03-02T09:13:17.275Z,958.92
2023-03-02T09:14:14.355Z,958.94
2023-03-02T09:15:14.416Z,958.97
2023-03-02T09:16:14.292Z,958.95
2023-03-02T09:17:14.437Z,958.95
2023-03-02T09:18:14.407Z,958.96
2023-03-02T09:19:14.249Z,958.99
2023-03-02T09:20:14.209Z,958.97
2023-03-02T09:21:14.267Z,958.98
2023-03-02T09:22:14.157Z,958.99
2023-03-02T09:23:14.167Z,958.98
2023-03-02T09:24:14.140Z,959.00
2023-03-02T09:25:14.146Z,959.01
2023-03-02T09:26:14.144Z,959.00
2023-03-02T09:27:14.131Z,958.97
2023-03-02T09:28:17.159Z,958.98
2023-03-02T09:29:14.102Z,958.99
2023-03-02T09:30:14.147Z,958.99
2023-03-02T09:31:14.091Z,959.01
2023-03-02T09:32:14.200Z,958.97
2023-03-02T09:33:14.121Z,959.01
2023-03-02T09:34:14.035Z,959.04
2023-03-02T09:35:14.030Z,959.10
2023-03-02T09:36:14.043Z,959.06
2023-03-02T09:37:14.045Z,959.11
2023-03-02T09:38:14.064Z,959.15
2023-03-02T09:39:14.032Z,959.14
2023-03-02T09:40:13.995Z,959.08
2023-03-02T09:41:13.997Z,959.09
2023-03-02T09:42:13.950Z,959.11
2023-03-02T09:43:16.983Z,959.18
2023-03-02T09:44:13.945Z,959.20
2023-03-02T09:45:13.949Z,959.18
2023-03-02T09:46:13.939Z,959.22
2023-03-02T09:47:14.155Z,959.20
2023-03-02T09:48:14.888Z,959.21
2023-03-02T09:49:13.876Z,959.16
2023-03-02T09:50:13.934Z,959.22
2023-03-02T09:51:13.930Z,959.22
2023-03-02T09:52:13.898Z,959.23
2023-03-02T09:53:13.880Z,959.27
2023-03-02T09:54:13.883Z,959.26
2023-03-02T09:55:13.817Z,959.26
2023-03-02T09:56:13.832Z,959.27
2023-03-02T09:57:13.898Z,959.26
2023-03-02T09:58:16.792Z,959.29
2023-03-02T09:59:13.796Z,959.23
2023-03-02T10:00:19.464Z,959.29
2023-03-02T10:01:16.151Z,959.26
2023-03-02T10:02:13.768Z,959.30
2023-03-02T10:03:17.316Z,959.31
2023-03-02T10:04:14.032Z,959.32
2023-03-02T10:05:13.723Z,959.29
2023-03-02T10:06:13.747Z,959.31
2023-03-02T10:07:13.715Z,959.33
2023-03-02T10:08:13.978Z,959.31
2023-03-02T10:09:13.765Z,959.28
2023-03-02T10:10:13.712Z,959.32
2023-03-02T10:11:13.638Z,959.31
2023-03-02T10:12:13.633Z,959.28
2023-03-02T10:13:16.624Z,959.29
2023-03-02T10:14:13.654Z,959.32
2023-03-02T10:15:13.610Z,959.27
2023-03-02T10:16:13.648Z,959.32
2023-03-02T10:17:13.787Z,959.31
2023-03-02T10:18:13.617Z,959.27
2023-03-02T10:19:13.548Z,959.30
2023-03-02T10:20:13.582Z,959.30
2023-03-02T10:21:13.624Z,959.26
2023-03-02T10:22:14.745Z,959.27
2023-03-02T10:23:13.549Z,959.26
2023-03-02T10:24:13.554Z,959.27
2023-03-02T10:25:13.494Z,959.25
2023-03-02T10:26:13.498Z,959.26
2023-03-02T10:27:13.475Z,959.25
2023-03-02T10:28:16.458Z,959.25
2023-03-02T10:29:13.463Z,959.28
2023-03-02T10:30:13.476Z,959.22
2023-03-02T10:31:13.503Z,959.21
2023-03-02T10:32:13.477Z,959.27
2023-03-02T10:33:13.408Z,959.24
2023-03-02T10:34:13.433Z,959.20
2023-03-02T10:35:13.398Z,959.24
2023-03-02T10:36:13.411Z,959.28
2023-03-02T10:37:13.535Z,959.32
2023-03-02T10:38:13.381Z,959.29
2023-03-02T10:39:13.379Z,959.30
2023-03-02T10:40:13.430Z,959.32
2023-03-02T10:41:13.320Z,959.30
2023-03-02T10:42:13.427Z,959.31
2023-03-02T10:43:16.300Z,959.32
2023-03-02T10:44:13.312Z,959.27
2023-03-02T10:45:13.290Z,959.27
2023-03-02T10:46:13.365Z,959.30
2023-03-02T10:47:13.305Z,959.31
2023-03-02T10:48:13.272Z,959.35
2023-03-02T10:49:13.304Z,959.33
2023-03-02T10:50:13.254Z,959.34
2023-03-02T10:51:13.256Z,959.36
2023-03-02T10:52:13.260Z,959.30
2023-03-02T10:53:13.237Z,959.29
2023-03-02T10:54:13.201Z,959.31
2023-03-02T10:55:13.221Z,959.29
2023-03-02T10:56:13.195Z,959.32
2023-03-02T10:57:13.179Z,959.34
2023-03-02T10:58:16.323Z,959.36
2023-03-02T10:59:13.150Z,959.33
2023-03-02T11:00:13.124Z,959.34
2023-03-02T11:01:13.154Z,959.40
2023-03-02T11:02:13.140Z,959.39
2023-03-02T11:03:13.147Z,959.40
2023-03-02T11:04:13.226Z,959.39
2023-03-02T11:05:13.108Z,959.35
2023-03-02T11:06:13.111Z,959.35
2023-03-02T11:07:13.119Z,959.30
2023-03-02T11:08:13.052Z,959.32
2023-03-02T11:09:13.062Z,959.35
2023-03-02T11:10:13.021Z,959.32
2023-03-02T11:11:13.062Z,959.35
2023-03-02T11:12:13.029Z,959.36
2023-03-02T11:13:16.026Z,959.36
2023-03-02T11:14:13.000Z,959.37
2023-03-02T11:15:13.009Z,959.36
2023-03-02T11:16:13.126Z,959.34
2023-03-02T11:17:12.955Z,959.31
2023-03-02T11:18:12.968Z,959.37
2023-03-02T11:19:12.971Z,959.35
2023-03-02T11:20:13.115Z,959.38
2023-03-02T11:21:12.947Z,959.37
2023-03-02T11:22:12.906Z,959.42
2023-03-02T11:23:12.914Z,959.35
2023-03-02T11:24:12.958Z,959.39
2023-03-02T11:25:12.909Z,959.39
2023-03-02T11:26:12.859Z,959.37
2023-03-02T11:27:12.918Z,959.38
2023-03-02T11:28:15.877Z,959.36
2023-03-02T11:29:12.880Z,959.39
2023-03-02T11:30:12.856Z,959.37
2023-03-02T11:31:12.881Z,959.39
2023-03-02T11:32:12.861Z,959.36
2023-03-02T11:33:12.823Z,959.35
2023-03-02T11:34:17.888Z,959.34
2023-03-02T11:35:12.810Z,959.36
2023-03-02T11:36:12.764Z,959.38
2023-03-02T11:37:12.780Z,959.40
2023-03-02T11:38:12.740Z,959.44
2023-03-02T11:39:12.729Z,959.46
2023-03-02T11:40:12.757Z,959.47
2023-03-02T11:41:12.714Z,959.45
2023-03-02T11:42:12.748Z,959.41
2023-03-02T11:43:15.692Z,959.42
2023-03-02T11:44:12.735Z,959.46
2023-03-02T11:45:12.720Z,959.45
2023-03-02T11:46:21.561Z,959.47
2023-03-02T11:47:12.709Z,959.51
2023-03-02T11:48:12.660Z,959.49
2023-03-02T11:49:12.658Z,959.40
2023-03-02T11:50:12.617Z,959.38
2023-03-02T11:51:12.655Z,959.36
2023-03-02T11:52:12.593Z,959.41
2023-03-02T11:53:12.666Z,959.39
2023-03-02T11:54:12.594Z,959.41
2023-03-02T11:55:12.572Z,959.41
2023-03-02T11:56:12.605Z,959.40
2023-03-02T11:57:12.590Z,959.39
2023-03-02T11:58:15.573Z,959.29
2023-03-02T11:59:12.580Z,959.33
2023-03-02T12:00:12.543Z,959.31
2023-03-02T12:01:12.516Z,959.28
2023-03-02T12:02:12.746Z,959.27
2023-03-02T12:03:12.484Z,959.33
2023-03-02T12:04:12.480Z,959.26
2023-03-02T12:05:12.530Z,959.27
2023-03-02T12:06:12.476Z,959.26
2023-03-02T12:07:12.569Z,959.30
2023-03-02T12:08:12.483Z,959.23
2023-03-02T12:09:12.463Z,959.24
2023-03-02T12:10:12.416Z,959.24
2023-03-02T12:11:12.427Z,959.25
2023-03-02T12:12:12.418Z,959.31
2023-03-02T12:13:15.568Z,959.30
2023-03-02T12:14:12.386Z,959.30
2023-03-02T12:15:12.380Z,959.26
2023-03-02T12:16:12.410Z,959.24
2023-03-02T12:17:12.372Z,959.26
2023-03-02T12:18:12.360Z,959.23
2023-03-02T12:19:12.330Z,959.28
2023-03-02T12:20:12.336Z,959.27
2023-03-02T12:21:12.344Z,959.32
2023-03-02T12:22:12.322Z,959.29
2023-03-02T12:23:12.309Z,959.26
2023-03-02T12:24:12.305Z,959.29
2023-03-02T12:25:12.317Z,959.32
2023-03-02T12:26:12.288Z,959.31
2023-03-02T12:27:12.271Z,959.28
2023-03-02T12:28:15.309Z,959.28